sensor_id;sensor_type;location;lat;lon;timestamp;temperature;humidity
28773;DHT22;15925;51.222;5.678;2023-03-03T00:02:19;1.70;99.90
28773;DHT22;15925;51.222;5.678;2023-03-03T00:04:45;1.70;99.90
28773;DHT22;15925;51.222;5.678;2023-03-03T00:07:11;1.70;99.90
28773;DHT22;15925;51.222;5.678;2023-03-03T00:09:37;1.70;99.90
28773;DHT22;15925;51.222;5.678;2023-03-03T00:12:31;1.60;99.90
28773;DHT22;15925;51.222;5.678;2023-03-03T00:14:58;1.50;99.90
28773;DHT22;15925;51.222;5.678;2023-03-03T00:17:29;1.60;99.90
28773;DHT22;15925;51.222;5.678;2023-03-03T00:19:56;1.60;99.90
28773;DHT22;15925;51.222;5.678;2023-03-03T00:22:28;1.60;99.90
28773;DHT22;15925;51.222;5.678;2023-03-03T00:24:57;1.50;99.90
28773;DHT22;15925;51.222;5.678;2023-03-03T00:27:34;1.50;99.90
28773;DHT22;15925;51.222;5.678;2023-03-03T00:30:22;1.50;99.90
28773;DHT22;15925;51.222;5.678;2023-03-03T00:32:49;1.50;99.90
28773;DHT22;15925;51.222;5.678;2023-03-03T00:35:27;1.50;99.90
28773;DHT22;15925;51.222;5.678;2023-03-03T00:38:11;1.50;99.90
28773;DHT22;15925;51.222;5.678;2023-03-03T00:40:39;1.50;99.90
28773;DHT22;15925;51.222;5.678;2023-03-03T00:45:51;1.30;99.90
28773;DHT22;15925;51.222;5.678;2023-03-03T00:50:46;1.30;99.90
28773;DHT22;15925;51.222;5.678;2023-03-03T00:53:16;1.30;99.90
28773;DHT22;15925;51.222;5.678;2023-03-03T00:55:44;1.20;99.90
28773;DHT22;15925;51.222;5.678;2023-03-03T00:58:10;1.20;99.90
28773;DHT22;15925;51.222;5.678;2023-03-03T01:00:41;1.20;99.90
28773;DHT22;15925;51.222;5.678;2023-03-03T01:03:15;1.10;99.90
28773;DHT22;15925;51.222;5.678;2023-03-03T01:05:41;1.20;99.90
28773;DHT22;15925;51.222;5.678;2023-03-03T01:08:07;1.10;99.90
28773;DHT22;15925;51.222;5.678;2023-03-03T01:10:38;1.10;99.90
28773;DHT22;15925;51.222;5.678;2023-03-03T01:13:05;1.10;99.90
28773;DHT22;15925;51.222;5.678;2023-03-03T01:15:32;1.00;99.90
28773;DHT22;15925;51.222;5.678;2023-03-03T01:17:58;1.00;99.90
28773;DHT22;15925;51.222;5.678;2023-03-03T01:20:24;1.10;99.90
28773;DHT22;15925;51.222;5.678;2023-03-03T01:22:50;1.00;99.90
28773;DHT22;15925;51.222;5.678;2023-03-03T01:25:15;1.10;99.90
28773;DHT22;15925;51.222;5.678;2023-03-03T01:27:45;1.20;99.90
28773;DHT22;15925;51.222;5.678;2023-03-03T01:30:11;1.20;99.90
28773;DHT22;15925;51.222;5.678;2023-03-03T01:32:38;1.30;99.90
28773;DHT22;15925;51.222;5.678;2023-03-03T01:35:04;1.30;99.90
28773;DHT22;15925;51.222;5.678;2023-03-03T01:37:30;1.20;99.90
28773;DHT22;15925;51.222;5.678;2023-03-03T01:39:56;1.20;99.90
28773;DHT22;15925;51.222;5.678;2023-03-03T01:42:22;1.10;99.90
28773;DHT22;15925;51.222;5.678;2023-03-03T01:44:48;1.10;99.90
28773;DHT22;15925;51.222;5.678;2023-03-03T01:47:21;1.10;99.90
28773;DHT22;15925;51.222;5.678;2023-03-03T01:50:00;1.10;99.90
28773;DHT22;15925;51.222;5.678;2023-03-03T01:52:34;1.10;99.90
28773;DHT22;15925;51.222;5.678;2023-03-03T01:55:07;1.10;99.90
28773;DHT22;15925;51.222;5.678;2023-03-03T01:57:39;1.00;99.90
28773;DHT22;15925;51.222;5.678;2023-03-03T02:00:08;1.00;99.90
28773;DHT22;15925;51.222;5.678;2023-03-03T02:02:44;1.10;99.90
28773;DHT22;15925;51.222;5.678;2023-03-03T02:05:12;1.00;99.90
28773;DHT22;15925;51.222;5.678;2023-03-03T02:07:38;1.10;99.90
28773;DHT22;15925;51.222;5.678;2023-03-03T02:12:44;1.10;99.90
28773;DHT22;15925;51.222;5.678;2023-03-03T02:15:21;1.10;99.90
28773;DHT22;15925;51.222;5.678;2023-03-03T02:17:48;1.10;99.90
28773;DHT22;15925;51.222;5.678;2023-03-03T02:26:11;1.00;99.90
28773;DHT22;15925;51.222;5.678;2023-03-03T02:28:39;0.90;99.90
28773;DHT22;15925;51.222;5.678;2023-03-03T02:31:13;0.90;99.90
28773;DHT22;15925;51.222;5.678;2023-03-03T02:33:43;0.90;99.90
28773;DHT22;15925;51.222;5.678;2023-03-03T02:36:18;1.00;99.90
28773;DHT22;15925;51.222;5.678;2023-03-03T02:39:13;1.10;99.90
28773;DHT22;15925;51.222;5.678;2023-03-03T02:44:33;1.00;99.90
28773;DHT22;15925;51.222;5.678;2023-03-03T02:46:59;1.00;99.90
28773;DHT22;15925;51.222;5.678;2023-03-03T02:49:28;1.10;99.90
28773;DHT22;15925;51.222;5.678;2023-03-03T02:51:56;1.10;99.90
28773;DHT22;15925;51.222;5.678;2023-03-03T02:54:24;1.00;99.90
28773;DHT22;15925;51.222;5.678;2023-03-03T02:56:51;1.10;99.90
28773;DHT22;15925;51.222;5.678;2023-03-03T02:59:17;1.10;99.90
28773;DHT22;15925;51.222;5.678;2023-03-03T03:04:39;1.30;99.90
28773;DHT22;15925;51.222;5.678;2023-03-03T03:07:05;1.10;99.90
28773;DHT22;15925;51.222;5.678;2023-03-03T03:09:33;1.10;99.90
28773;DHT22;15925;51.222;5.678;2023-03-03T03:11:59;1.10;99.90
28773;DHT22;15925;51.222;5.678;2023-03-03T03:14:27;1.10;99.90
28773;DHT22;15925;51.222;5.678;2023-03-03T03:16:54;1.10;99.90
28773;DHT22;15925;51.222;5.678;2023-03-03T03:19:20;1.10;99.90
28773;DHT22;15925;51.222;5.678;2023-03-03T03:21:46;1.10;99.90
28773;DHT22;15925;51.222;5.678;2023-03-03T03:24:12;1.00;99.90
28773;DHT22;15925;51.222;5.678;2023-03-03T03:26:42;1.00;99.90
28773;DHT22;15925;51.222;5.678;2023-03-03T03:29:09;1.00;99.90
28773;DHT22;15925;51.222;5.678;2023-03-03T03:31:35;0.90;99.90
28773;DHT22;15925;51.222;5.678;2023-03-03T03:34:02;0.80;99.90
28773;DHT22;15925;51.222;5.678;2023-03-03T03:36:29;0.80;99.90
28773;DHT22;15925;51.222;5.678;2023-03-03T03:38:55;0.80;99.90
28773;DHT22;15925;51.222;5.678;2023-03-03T03:41:21;0.80;99.90
28773;DHT22;15925;51.222;5.678;2023-03-03T03:43:47;0.80;99.90
28773;DHT22;15925;51.222;5.678;2023-03-03T03:46:14;0.90;99.90
28773;DHT22;15925;51.222;5.678;2023-03-03T03:48:42;0.90;99.90
28773;DHT22;15925;51.222;5.678;2023-03-03T03:51:11;0.90;99.90
28773;DHT22;15925;51.222;5.678;2023-03-03T03:53:38;0.90;99.90
28773;DHT22;15925;51.222;5.678;2023-03-03T03:56:04;0.90;99.90
28773;DHT22;15925;51.222;5.678;2023-03-03T03:58:31;0.90;99.90
28773;DHT22;15925;51.222;5.678;2023-03-03T04:01:06;1.00;99.90
28773;DHT22;15925;51.222;5.678;2023-03-03T04:03:35;1.00;99.90
28773;DHT22;15925;51.222;5.678;2023-03-03T04:06:04;1.00;99.90
28773;DHT22;15925;51.222;5.678;2023-03-03T04:08:30;0.90;99.90
28773;DHT22;15925;51.222;5.678;2023-03-03T04:10:56;0.90;99.90
28773;DHT22;15925;51.222;5.678;2023-03-03T04:13:24;0.90;99.90
28773;DHT22;15925;51.222;5.678;2023-03-03T04:15:53;0.80;99.90
28773;DHT22;15925;51.222;5.678;2023-03-03T04:18:19;0.80;99.90
28773;DHT22;15925;51.222;5.678;2023-03-03T04:20:45;0.80;99.90
28773;DHT22;15925;51.222;5.678;2023-03-03T04:23:11;0.80;99.90
28773;DHT22;15925;51.222;5.678;2023-03-03T04:25:37;0.60;99.90
28773;DHT22;15925;51.222;5.678;2023-03-03T04:28:11;0.70;99.90
28773;DHT22;15925;51.222;5.678;2023-03-03T04:30:39;0.70;99.90
28773;DHT22;15925;51.222;5.678;2023-03-03T04:33:05;0.80;99.90
28773;DHT22;15925;51.222;5.678;2023-03-03T04:35:31;0.80;99.90
28773;DHT22;15925;51.222;5.678;2023-03-03T04:37:57;0.70;99.90
28773;DHT22;15925;51.222;5.678;2023-03-03T04:40:23;0.70;99.90
28773;DHT22;15925;51.222;5.678;2023-03-03T04:42:50;0.70;99.90
28773;DHT22;15925;51.222;5.678;2023-03-03T04:45:16;0.70;99.90
28773;DHT22;15925;51.222;5.678;2023-03-03T04:47:43;0.70;99.90
28773;DHT22;15925;51.222;5.678;2023-03-03T04:50:10;0.80;99.90
28773;DHT22;15925;51.222;5.678;2023-03-03T04:52:36;0.70;99.90
28773;DHT22;15925;51.222;5.678;2023-03-03T04:55:04;0.80;99.90
28773;DHT22;15925;51.222;5.678;2023-03-03T04:57:30;0.70;99.90
28773;DHT22;15925;51.222;5.678;2023-03-03T04:59:57;0.80;99.90
28773;DHT22;15925;51.222;5.678;2023-03-03T05:02:23;0.80;99.90
28773;DHT22;15925;51.222;5.678;2023-03-03T05:04:49;0.80;99.90
28773;DHT22;15925;51.222;5.678;2023-03-03T05:07:16;0.80;99.90
28773;DHT22;15925;51.222;5.678;2023-03-03T05:09:43;0.80;99.90
28773;DHT22;15925;51.222;5.678;2023-03-03T05:12:10;0.70;99.90
28773;DHT22;15925;51.222;5.678;2023-03-03T05:14:36;0.60;99.90
28773;DHT22;15925;51.222;5.678;2023-03-03T05:17:02;0.70;99.90
28773;DHT22;15925;51.222;5.678;2023-03-03T05:19:29;0.70;99.90
28773;DHT22;15925;51.222;5.678;2023-03-03T05:21:55;0.70;99.90
28773;DHT22;15925;51.222;5.678;2023-03-03T05:24:22;0.70;99.90
28773;DHT22;15925;51.222;5.678;2023-03-03T05:26:48;0.70;99.90
28773;DHT22;15925;51.222;5.678;2023-03-03T05:29:14;0.70;99.90
28773;DHT22;15925;51.222;5.678;2023-03-03T05:31:39;0.70;99.90
28773;DHT22;15925;51.222;5.678;2023-03-03T05:34:05;0.80;99.90
28773;DHT22;15925;51.222;5.678;2023-03-03T05:36:31;0.90;99.90
28773;DHT22;15925;51.222;5.678;2023-03-03T05:38:57;0.80;99.90
28773;DHT22;15925;51.222;5.678;2023-03-03T05:41:23;0.80;99.90
28773;DHT22;15925;51.222;5.678;2023-03-03T05:43:48;0.90;99.90
28773;DHT22;15925;51.222;5.678;2023-03-03T05:46:14;0.90;99.90
28773;DHT22;15925;51.222;5.678;2023-03-03T05:48:40;1.00;99.90
28773;DHT22;15925;51.222;5.678;2023-03-03T05:51:06;1.00;99.90
28773;DHT22;15925;51.222;5.678;2023-03-03T05:53:32;0.90;99.90
28773;DHT22;15925;51.222;5.678;2023-03-03T05:55:58;0.90;99.90
28773;DHT22;15925;51.222;5.678;2023-03-03T05:58:25;0.80;99.90
28773;DHT22;15925;51.222;5.678;2023-03-03T06:00:51;0.70;99.90
28773;DHT22;15925;51.222;5.678;2023-03-03T06:03:16;0.90;99.90
28773;DHT22;15925;51.222;5.678;2023-03-03T06:05:42;0.80;99.90
28773;DHT22;15925;51.222;5.678;2023-03-03T06:08:08;0.70;99.90
28773;DHT22;15925;51.222;5.678;2023-03-03T06:10:34;0.80;99.90
28773;DHT22;15925;51.222;5.678;2023-03-03T06:13:03;0.90;99.90
28773;DHT22;15925;51.222;5.678;2023-03-03T06:15:29;0.80;99.90
28773;DHT22;15925;51.222;5.678;2023-03-03T06:17:55;0.90;99.90
28773;DHT22;15925;51.222;5.678;2023-03-03T06:20:21;1.00;99.90
28773;DHT22;15925;51.222;5.678;2023-03-03T06:22:47;1.00;99.90
28773;DHT22;15925;51.222;5.678;2023-03-03T06:25:12;1.00;99.90
28773;DHT22;15925;51.222;5.678;2023-03-03T06:27:38;1.00;99.90
28773;DHT22;15925;51.222;5.678;2023-03-03T06:30:05;1.10;99.90
28773;DHT22;15925;51.222;5.678;2023-03-03T06:32:31;1.10;99.90
28773;DHT22;15925;51.222;5.678;2023-03-03T06:34:57;1.10;99.90
28773;DHT22;15925;51.222;5.678;2023-03-03T06:37:23;1.00;99.90
28773;DHT22;15925;51.222;5.678;2023-03-03T06:39:48;1.00;99.90
28773;DHT22;15925;51.222;5.678;2023-03-03T06:42:17;1.00;99.90
28773;DHT22;15925;51.222;5.678;2023-03-03T06:44:43;1.00;99.90
28773;DHT22;15925;51.222;5.678;2023-03-03T06:47:09;1.00;99.90
28773;DHT22;15925;51.222;5.678;2023-03-03T06:49:35;1.00;99.90
28773;DHT22;15925;51.222;5.678;2023-03-03T06:52:04;1.10;99.90
28773;DHT22;15925;51.222;5.678;2023-03-03T06:54:34;1.10;99.90
28773;DHT22;15925;51.222;5.678;2023-03-03T06:57:14;1.10;99.90
28773;DHT22;15925;51.222;5.678;2023-03-03T06:59:40;1.10;99.90
28773;DHT22;15925;51.222;5.678;2023-03-03T07:02:15;1.10;99.90
28773;DHT22;15925;51.222;5.678;2023-03-03T07:04:41;1.10;99.90
28773;DHT22;15925;51.222;5.678;2023-03-03T07:07:18;1.10;99.90
28773;DHT22;15925;51.222;5.678;2023-03-03T07:09:47;1.10;99.90
28773;DHT22;15925;51.222;5.678;2023-03-03T07:12:17;1.20;99.90
28773;DHT22;15925;51.222;5.678;2023-03-03T07:14:46;1.20;99.90
28773;DHT22;15925;51.222;5.678;2023-03-03T07:17:18;1.30;99.90
28773;DHT22;15925;51.222;5.678;2023-03-03T07:19:45;1.30;99.90
28773;DHT22;15925;51.222;5.678;2023-03-03T07:22:19;1.20;99.90
28773;DHT22;15925;51.222;5.678;2023-03-03T07:24:48;1.10;99.90
28773;DHT22;15925;51.222;5.678;2023-03-03T07:27:33;1.10;99.90
28773;DHT22;15925;51.222;5.678;2023-03-03T07:30:28;1.10;99.90
28773;DHT22;15925;51.222;5.678;2023-03-03T07:32:56;1.10;99.90
28773;DHT22;15925;51.222;5.678;2023-03-03T07:35:36;1.20;99.90
28773;DHT22;15925;51.222;5.678;2023-03-03T07:38:16;1.20;99.90
28773;DHT22;15925;51.222;5.678;2023-03-03T07:40:51;1.30;99.90
28773;DHT22;15925;51.222;5.678;2023-03-03T07:43:42;1.30;99.90
28773;DHT22;15925;51.222;5.678;2023-03-03T07:46:46;1.40;99.90
28773;DHT22;15925;51.222;5.678;2023-03-03T07:49:35;1.40;99.90
28773;DHT22;15925;51.222;5.678;2023-03-03T07:52:16;1.50;99.90
28773;DHT22;15925;51.222;5.678;2023-03-03T07:54:44;1.40;99.90
28773;DHT22;15925;51.222;5.678;2023-03-03T07:59:40;1.50;99.90
28773;DHT22;15925;51.222;5.678;2023-03-03T08:02:37;1.60;99.90
28773;DHT22;15925;51.222;5.678;2023-03-03T08:05:20;1.60;99.90
28773;DHT22;15925;51.222;5.678;2023-03-03T08:07:49;1.60;99.90
28773;DHT22;15925;51.222;5.678;2023-03-03T08:15:44;1.70;99.90
28773;DHT22;15925;51.222;5.678;2023-03-03T08:18:33;1.80;99.90
28773;DHT22;15925;51.222;5.678;2023-03-03T08:21:03;1.80;99.90
28773;DHT22;15925;51.222;5.678;2023-03-03T08:23:32;1.80;99.90
28773;DHT22;15925;51.222;5.678;2023-03-03T08:25:58;1.80;99.90
28773;DHT22;15925;51.222;5.678;2023-03-03T08:28:24;1.90;99.90
28773;DHT22;15925;51.222;5.678;2023-03-03T08:30:50;2.00;99.90
28773;DHT22;15925;51.222;5.678;2023-03-03T08:33:16;2.00;99.90
28773;DHT22;15925;51.222;5.678;2023-03-03T08:35:43;2.00;99.90
28773;DHT22;15925;51.222;5.678;2023-03-03T08:38:10;2.00;99.90
28773;DHT22;15925;51.222;5.678;2023-03-03T08:40:36;2.00;99.90
28773;DHT22;15925;51.222;5.678;2023-03-03T08:43:02;2.20;99.90
28773;DHT22;15925;51.222;5.678;2023-03-03T08:45:29;2.30;99.90
28773;DHT22;15925;51.222;5.678;2023-03-03T08:47:55;2.30;99.90
28773;DHT22;15925;51.222;5.678;2023-03-03T08:50:21;2.30;99.90
28773;DHT22;15925;51.222;5.678;2023-03-03T08:52:47;2.30;99.90
28773;DHT22;15925;51.222;5.678;2023-03-03T08:55:13;2.20;99.90
28773;DHT22;15925;51.222;5.678;2023-03-03T08:57:39;2.30;99.90
28773;DHT22;15925;51.222;5.678;2023-03-03T09:00:11;2.40;99.90
28773;DHT22;15925;51.222;5.678;2023-03-03T09:02:38;2.40;99.90
28773;DHT22;15925;51.222;5.678;2023-03-03T09:05:05;2.40;99.90
28773;DHT22;15925;51.222;5.678;2023-03-03T09:07:31;2.40;99.90
28773;DHT22;15925;51.222;5.678;2023-03-03T09:09:57;2.30;99.90
28773;DHT22;15925;51.222;5.678;2023-03-03T09:14:56;2.40;99.90
28773;DHT22;15925;51.222;5.678;2023-03-03T09:17:32;2.40;99.90
28773;DHT22;15925;51.222;5.678;2023-03-03T09:20:20;2.40;99.90
28773;DHT22;15925;51.222;5.678;2023-03-03T09:22:48;2.50;99.90
28773;DHT22;15925;51.222;5.678;2023-03-03T09:25:35;2.60;99.90
28773;DHT22;15925;51.222;5.678;2023-03-03T09:28:02;2.60;99.90
28773;DHT22;15925;51.222;5.678;2023-03-03T09:30:37;2.60;99.90
28773;DHT22;15925;51.222;5.678;2023-03-03T09:33:43;2.70;99.90
28773;DHT22;15925;51.222;5.678;2023-03-03T09:36:28;2.60;99.90
28773;DHT22;15925;51.222;5.678;2023-03-03T09:38:55;2.60;99.90
28773;DHT22;15925;51.222;5.678;2023-03-03T09:50:28;2.60;99.90
28773;DHT22;15925;51.222;5.678;2023-03-03T09:53:23;2.60;99.90
28773;DHT22;15925;51.222;5.678;2023-03-03T09:56:27;2.60;99.90
28773;DHT22;15925;51.222;5.678;2023-03-03T09:59:33;2.70;99.90
28773;DHT22;15925;51.222;5.678;2023-03-03T10:21:09;2.90;99.90
28773;DHT22;15925;51.222;5.678;2023-03-03T10:23:54;2.90;99.90
28773;DHT22;15925;51.222;5.678;2023-03-03T10:26:43;2.80;99.90
28773;DHT22;15925;51.222;5.678;2023-03-03T10:29:23;2.90;99.90
28773;DHT22;15925;51.222;5.678;2023-03-03T10:34:52;3.00;99.90
28773;DHT22;15925;51.222;5.678;2023-03-03T10:43:00;3.00;99.90
28773;DHT22;15925;51.222;5.678;2023-03-03T11:02:20;3.80;99.90
28773;DHT22;15925;51.222;5.678;2023-03-03T11:07:39;3.90;99.90
28773;DHT22;15925;51.222;5.678;2023-03-03T11:10:32;4.00;99.90
28773;DHT22;15925;51.222;5.678;2023-03-03T11:21:25;4.20;99.90
28773;DHT22;15925;51.222;5.678;2023-03-03T11:27:20;4.40;99.90
28773;DHT22;15925;51.222;5.678;2023-03-03T11:33:03;4.30;99.90
28773;DHT22;15925;51.222;5.678;2023-03-03T11:43:43;4.80;99.90
28773;DHT22;15925;51.222;5.678;2023-03-03T11:46:25;4.80;99.90
28773;DHT22;15925;51.222;5.678;2023-03-03T11:49:15;4.80;99.90
28773;DHT22;15925;51.222;5.678;2023-03-03T11:57:25;4.60;99.90
28773;DHT22;15925;51.222;5.678;2023-03-03T12:00:02;4.60;99.90
28773;DHT22;15925;51.222;5.678;2023-03-03T12:03:35;4.70;99.90
28773;DHT22;15925;51.222;5.678;2023-03-03T12:05:55;4.70;99.90
28773;DHT22;15925;51.222;5.678;2023-03-03T12:08:48;4.70;99.90
28773;DHT22;15925;51.222;5.678;2023-03-03T12:11:27;4.80;99.90
28773;DHT22;15925;51.222;5.678;2023-03-03T12:14:19;5.00;99.90
28773;DHT22;15925;51.222;5.678;2023-03-03T12:28:18;5.40;99.90
28773;DHT22;15925;51.222;5.678;2023-03-03T12:39:10;5.70;99.90
28773;DHT22;15925;51.222;5.678;2023-03-03T12:44:29;5.70;99.90
28773;DHT22;15925;51.222;5.678;2023-03-03T12:47:12;5.80;99.90
28773;DHT22;15925;51.222;5.678;2023-03-03T12:49:53;6.00;99.90
28773;DHT22;15925;51.222;5.678;2023-03-03T12:52:29;6.00;99.90
28773;DHT22;15925;51.222;5.678;2023-03-03T13:09:08;6.50;99.90
28773;DHT22;15925;51.222;5.678;2023-03-03T13:14:28;6.60;99.90
28773;DHT22;15925;51.222;5.678;2023-03-03T13:22:38;7.00;99.90
28773;DHT22;15925;51.222;5.678;2023-03-03T13:26:02;7.00;99.90
28773;DHT22;15925;51.222;5.678;2023-03-03T13:28:54;6.80;99.90
28773;DHT22;15925;51.222;5.678;2023-03-03T13:31:26;7.00;99.90
28773;DHT22;15925;51.222;5.678;2023-03-03T13:33:56;7.10;99.90
28773;DHT22;15925;51.222;5.678;2023-03-03T13:36:39;7.20;99.90
28773;DHT22;15925;51.222;5.678;2023-03-03T13:39:17;7.30;99.90
28773;DHT22;15925;51.222;5.678;2023-03-03T13:41:50;7.20;99.90
28773;DHT22;15925;51.222;5.678;2023-03-03T13:44:41;7.30;99.90
28773;DHT22;15925;51.222;5.678;2023-03-03T13:52:31;7.60;99.90
28773;DHT22;15925;51.222;5.678;2023-03-03T13:57:56;7.80;99.90
28773;DHT22;15925;51.222;5.678;2023-03-03T14:06:20;8.00;99.90
28773;DHT22;15925;51.222;5.678;2023-03-03T14:08:59;8.10;99.90
28773;DHT22;15925;51.222;5.678;2023-03-03T14:14:24;8.20;99.90
28773;DHT22;15925;51.222;5.678;2023-03-03T14:17:12;8.30;99.90
28773;DHT22;15925;51.222;5.678;2023-03-03T14:22:51;8.20;99.90
28773;DHT22;15925;51.222;5.678;2023-03-03T14:25:18;7.90;99.90
28773;DHT22;15925;51.222;5.678;2023-03-03T14:35:38;8.20;99.90
28773;DHT22;15925;51.222;5.678;2023-03-03T14:40:42;7.90;99.90
28773;DHT22;15925;51.222;5.678;2023-03-03T14:43:58;7.80;99.90
28773;DHT22;15925;51.222;5.678;2023-03-03T14:46:32;7.70;99.90
28773;DHT22;15925;51.222;5.678;2023-03-03T14:49:03;7.80;99.90
28773;DHT22;15925;51.222;5.678;2023-03-03T14:51:45;8.00;99.90
28773;DHT22;15925;51.222;5.678;2023-03-03T14:54:27;8.10;99.90
28773;DHT22;15925;51.222;5.678;2023-03-03T14:57:14;8.20;99.90
28773;DHT22;15925;51.222;5.678;2023-03-03T14:59:59;8.10;99.90
28773;DHT22;15925;51.222;5.678;2023-03-03T15:05:17;8.10;99.90
28773;DHT22;15925;51.222;5.678;2023-03-03T15:07:43;7.90;99.90
28773;DHT22;15925;51.222;5.678;2023-03-03T15:10:10;7.90;99.90
28773;DHT22;15925;51.222;5.678;2023-03-03T15:12:39;7.80;99.90
28773;DHT22;15925;51.222;5.678;2023-03-03T15:21:09;7.80;99.90
28773;DHT22;15925;51.222;5.678;2023-03-03T15:26:53;7.70;99.90
28773;DHT22;15925;51.222;5.678;2023-03-03T15:34:43;7.80;99.90
28773;DHT22;15925;51.222;5.678;2023-03-03T15:40:23;7.80;99.90
28773;DHT22;15925;51.222;5.678;2023-03-03T15:57:04;7.80;99.90
28773;DHT22;15925;51.222;5.678;2023-03-03T16:02:41;7.70;99.90
28773;DHT22;15925;51.222;5.678;2023-03-03T16:05:54;7.70;99.90
28773;DHT22;15925;51.222;5.678;2023-03-03T16:08:30;7.80;99.90
28773;DHT22;15925;51.222;5.678;2023-03-03T16:11:17;7.80;99.90
28773;DHT22;15925;51.222;5.678;2023-03-03T16:17:19;7.60;99.90
28773;DHT22;15925;51.222;5.678;2023-03-03T16:20:02;7.60;99.90
28773;DHT22;15925;51.222;5.678;2023-03-03T16:22:48;7.60;99.90
28773;DHT22;15925;51.222;5.678;2023-03-03T16:25:47;7.60;99.90
28773;DHT22;15925;51.222;5.678;2023-03-03T16:33:25;7.60;99.90
28773;DHT22;15925;51.222;5.678;2023-03-03T16:36:07;7.70;99.90
28773;DHT22;15925;51.222;5.678;2023-03-03T16:38:40;7.60;99.90
28773;DHT22;15925;51.222;5.678;2023-03-03T16:41:12;7.60;99.90
28773;DHT22;15925;51.222;5.678;2023-03-03T16:43:57;7.60;99.90
28773;DHT22;15925;51.222;5.678;2023-03-03T16:46:44;7.60;99.90
28773;DHT22;15925;51.222;5.678;2023-03-03T16:49:42;7.60;99.90
28773;DHT22;15925;51.222;5.678;2023-03-03T16:52:16;7.40;99.90
28773;DHT22;15925;51.222;5.678;2023-03-03T16:54:51;7.50;99.90
28773;DHT22;15925;51.222;5.678;2023-03-03T17:00:05;7.60;99.90
28773;DHT22;15925;51.222;5.678;2023-03-03T17:02:52;7.50;99.90
28773;DHT22;15925;51.222;5.678;2023-03-03T17:05:48;7.50;99.90
28773;DHT22;15925;51.222;5.678;2023-03-03T17:08:30;7.50;99.90
28773;DHT22;15925;51.222;5.678;2023-03-03T17:11:34;7.50;99.90
28773;DHT22;15925;51.222;5.678;2023-03-03T17:17:03;7.40;99.90
28773;DHT22;15925;51.222;5.678;2023-03-03T17:19:49;7.30;99.90
28773;DHT22;15925;51.222;5.678;2023-03-03T17:39:17;6.70;99.90
28773;DHT22;15925;51.222;5.678;2023-03-03T17:41:50;6.70;99.90
28773;DHT22;15925;51.222;5.678;2023-03-03T17:44:44;6.60;99.90
28773;DHT22;15925;51.222;5.678;2023-03-03T18:07:12;6.10;99.90
28773;DHT22;15925;51.222;5.678;2023-03-03T18:13:30;6.00;99.90
28773;DHT22;15925;51.222;5.678;2023-03-03T18:21:13;6.00;99.90
28773;DHT22;15925;51.222;5.678;2023-03-03T18:23:44;6.00;99.90
28773;DHT22;15925;51.222;5.678;2023-03-03T18:38:01;5.90;99.90
28773;DHT22;15925;51.222;5.678;2023-03-03T18:42:38;5.90;99.90
28773;DHT22;15925;51.222;5.678;2023-03-03T18:48:10;5.90;99.90
28773;DHT22;15925;51.222;5.678;2023-03-03T18:50:40;5.90;99.90
28773;DHT22;15925;51.222;5.678;2023-03-03T18:55:46;5.90;99.90
28773;DHT22;15925;51.222;5.678;2023-03-03T19:00:44;6.00;99.90
28773;DHT22;15925;51.222;5.678;2023-03-03T19:06:53;5.80;99.90
28773;DHT22;15925;51.222;5.678;2023-03-03T19:21:05;6.00;99.90
28773;DHT22;15925;51.222;5.678;2023-03-03T19:23:52;5.90;99.90
28773;DHT22;15925;51.222;5.678;2023-03-03T19:31:36;5.80;99.90
28773;DHT22;15925;51.222;5.678;2023-03-03T19:39:56;5.90;99.90
28773;DHT22;15925;51.222;5.678;2023-03-03T19:42:37;5.90;99.90
28773;DHT22;15925;51.222;5.678;2023-03-03T19:45:20;5.90;99.90
28773;DHT22;15925;51.222;5.678;2023-03-03T19:47:56;5.90;99.90
28773;DHT22;15925;51.222;5.678;2023-03-03T19:50:49;5.90;99.90
28773;DHT22;15925;51.222;5.678;2023-03-03T19:53:33;5.90;99.90
28773;DHT22;15925;51.222;5.678;2023-03-03T19:56:20;5.90;99.90
28773;DHT22;15925;51.222;5.678;2023-03-03T19:59:18;5.90;99.90
28773;DHT22;15925;51.222;5.678;2023-03-03T20:02:03;5.90;99.90
28773;DHT22;15925;51.222;5.678;2023-03-03T20:07:58;5.80;99.90
28773;DHT22;15925;51.222;5.678;2023-03-03T20:10:51;5.70;99.90
28773;DHT22;15925;51.222;5.678;2023-03-03T20:18:50;5.60;99.90
28773;DHT22;15925;51.222;5.678;2023-03-03T20:27:05;5.60;99.90
28773;DHT22;15925;51.222;5.678;2023-03-03T20:30:06;5.60;99.90
28773;DHT22;15925;51.222;5.678;2023-03-03T20:36:05;5.50;99.90
28773;DHT22;15925;51.222;5.678;2023-03-03T20:38:46;5.50;99.90
28773;DHT22;15925;51.222;5.678;2023-03-03T20:41:46;5.50;99.90
28773;DHT22;15925;51.222;5.678;2023-03-03T20:44:28;5.50;99.90
28773;DHT22;15925;51.222;5.678;2023-03-03T20:49:57;5.60;99.90
28773;DHT22;15925;51.222;5.678;2023-03-03T20:55:19;5.60;99.90
28773;DHT22;15925;51.222;5.678;2023-03-03T21:06:15;5.60;99.90
28773;DHT22;15925;51.222;5.678;2023-03-03T21:11:19;5.60;99.90
28773;DHT22;15925;51.222;5.678;2023-03-03T21:13:47;5.50;99.90
28773;DHT22;15925;51.222;5.678;2023-03-03T21:19:09;5.60;99.90
28773;DHT22;15925;51.222;5.678;2023-03-03T21:21:42;5.70;99.90
28773;DHT22;15925;51.222;5.678;2023-03-03T21:24:12;5.70;99.90
28773;DHT22;15925;51.222;5.678;2023-03-03T21:26:52;5.60;99.90
28773;DHT22;15925;51.222;5.678;2023-03-03T21:29:36;5.60;99.90
28773;DHT22;15925;51.222;5.678;2023-03-03T21:32:08;5.60;99.90
28773;DHT22;15925;51.222;5.678;2023-03-03T21:34:39;5.60;99.90
28773;DHT22;15925;51.222;5.678;2023-03-03T21:37:10;5.60;99.90
28773;DHT22;15925;51.222;5.678;2023-03-03T21:39:43;5.60;99.90
28773;DHT22;15925;51.222;5.678;2023-03-03T21:42:15;5.60;99.90
28773;DHT22;15925;51.222;5.678;2023-03-03T21:47:14;5.60;99.90
28773;DHT22;15925;51.222;5.678;2023-03-03T21:49:44;5.60;99.90
28773;DHT22;15925;51.222;5.678;2023-03-03T21:52:11;5.50;99.90
28773;DHT22;15925;51.222;5.678;2023-03-03T21:54:37;5.60;99.90
28773;DHT22;15925;51.222;5.678;2023-03-03T21:57:04;5.60;99.90
28773;DHT22;15925;51.222;5.678;2023-03-03T21:59:29;5.60;99.90
28773;DHT22;15925;51.222;5.678;2023-03-03T22:01:55;5.70;99.90
28773;DHT22;15925;51.222;5.678;2023-03-03T22:04:21;5.70;99.90
28773;DHT22;15925;51.222;5.678;2023-03-03T22:06:47;5.70;99.90
28773;DHT22;15925;51.222;5.678;2023-03-03T22:09:13;5.80;99.90
28773;DHT22;15925;51.222;5.678;2023-03-03T22:11:39;5.60;99.90
28773;DHT22;15925;51.222;5.678;2023-03-03T22:14:08;5.70;99.90
28773;DHT22;15925;51.222;5.678;2023-03-03T22:16:34;5.70;99.90
28773;DHT22;15925;51.222;5.678;2023-03-03T22:19:00;5.80;99.90
28773;DHT22;15925;51.222;5.678;2023-03-03T22:21:26;5.70;99.90
28773;DHT22;15925;51.222;5.678;2023-03-03T22:23:52;5.70;99.90
28773;DHT22;15925;51.222;5.678;2023-03-03T22:26:17;5.60;99.90
28773;DHT22;15925;51.222;5.678;2023-03-03T22:28:46;5.70;99.90
28773;DHT22;15925;51.222;5.678;2023-03-03T22:31:14;5.70;99.90
28773;DHT22;15925;51.222;5.678;2023-03-03T22:33:40;5.80;99.90
28773;DHT22;15925;51.222;5.678;2023-03-03T22:36:06;5.70;99.90
28773;DHT22;15925;51.222;5.678;2023-03-03T22:38:33;5.70;99.90